Home > Products > Valid Products > MTR

000
SAUS45 KPIH 010752
MTRSNT
METAR KSNT 010751Z AUTO 09004KT M14/M18 A3019 RMK AO1 SLP273
T11391178





000
SAUS45 KPIH 010652
MTRSNT
METAR KSNT 010651Z AUTO 00000KT M13/M17 A3018 RMK AO1 SLP280
T11331172 410171228





000
SAUS45 KPIH 010652
MTRSNT
METAR KSNT 010651Z AUTO 00000KT M13/M17 A3018 RMK AO1 SLP280
T11331172 410171228





000
SAUS45 KPIH 010552
MTRSNT
METAR KSNT 010551Z AUTO 13003KT M14/M18 A3018 RMK AO1 SLP287
T11391178 11028 21144 53009





000
SAUS45 KPIH 010552
MTRSNT
METAR KSNT 010551Z AUTO 13003KT M14/M18 A3018 RMK AO1 SLP287
T11391178 11028 21144 53009





000
SAUS45 KPIH 010452
MTRSNT
METAR KSNT 010451Z AUTO 10003KT M12/M16 A3017 RMK AO1 SLP282
T11171161





000
SAUS45 KPIH 010452
MTRSNT
METAR KSNT 010451Z AUTO 10003KT M12/M16 A3017 RMK AO1 SLP282
T11171161





000
SAUS45 KPIH 010352
MTRSNT
METAR KSNT 010351Z AUTO 00000KT M11/M16 A3014 RMK AO1 SLP273
T11111156





000
SAUS45 KPIH 010352
MTRSNT
METAR KSNT 010351Z AUTO 00000KT M11/M16 A3014 RMK AO1 SLP273
T11111156





000
SAUS45 KPIH 010252
MTRSNT
METAR KSNT 010251Z AUTO 00000KT M11/M16 A3015 RMK AO1 SLP279
T11111156 53012





000
SAUS45 KPIH 010252
MTRSNT
METAR KSNT 010251Z AUTO 00000KT M11/M16 A3015 RMK AO1 SLP279
T11111156 53012





000
SAUS45 KPIH 010152
MTRSNT
METAR KSNT 010151Z AUTO 00000KT M09/M16 A3013 RMK AO1 SLP268
T10891156





000
SAUS45 KPIH 010152
MTRSNT
METAR KSNT 010151Z AUTO 00000KT M09/M16 A3013 RMK AO1 SLP268
T10891156





000
SAUS45 KPIH 010052
MTRSNT
METAR KSNT 010051Z AUTO 00000KT M07/M14 A3010 RMK AO1 SLP250
T10721144





000
SAUS45 KPIH 010052
MTRSNT
METAR KSNT 010051Z AUTO 00000KT M07/M14 A3010 RMK AO1 SLP250
T10721144





000
SAUS45 KPIH 312352
MTRSNT
METAR KSNT 312351Z AUTO 00000KT M03/M12 A3010 RMK AO1 SLP237
T10281122 11017 21167 56006





000
SAUS45 KPIH 312252
MTRSNT
METAR KSNT 312251Z AUTO 00000KT M02/M13 A3010 RMK AO1 SLP235
T10171128





000
SAUS45 KPIH 312152
MTRSNT
METAR KSNT 312151Z AUTO 00000KT M04/M13 A3011 RMK AO1 SLP236
T10391128





000
SAUS45 KPIH 312152
MTRSNT
METAR KSNT 312151Z AUTO 00000KT M04/M13 A3011 RMK AO1 SLP236
T10391128





000
SAUS45 KPIH 312052
MTRSNT
METAR KSNT 312051Z AUTO 00000KT M07/M13 A3012 RMK AO1 SLP251
T10671133 58018





000
SAUS45 KPIH 311952
MTRSNT
METAR KSNT 311951Z AUTO 00000KT M09/M16 A3015 RMK AO1 SLP266
T10941156





000
SAUS45 KPIH 311852
MTRSNT
METAR KSNT 311851Z AUTO 00000KT M13/M17 A3017 RMK AO1 SLP284
T11331167





000
SAUS45 KPIH 311752
MTRSNT
METAR KSNT 311751Z AUTO 31003KT M17/M19 A3019 RMK AO1 SLP297
T11671194 11139 21228 50004





000
SAUS45 KPIH 311652
MTRSNT
METAR KSNT 311651Z AUTO 00000KT M17/M19 A3019 RMK AO1 SLP298
T11721194





000
SAUS45 KPIH 311552
MTRSNT
METAR KSNT 311551Z AUTO 00000KT M19/M23 A3018 RMK AO1 SLP297
T11941228





000
SAUS45 KPIH 311452
MTRSNT
METAR KSNT 311451Z AUTO 00000KT M21/M24 A3017 RMK AO1 SLP292
T12061244 53002





000
SAUS45 KPIH 311352
MTRSNT
METAR KSNT 311351Z AUTO 00000KT M21/M25 A3017 RMK AO1 SLP283
T12111250





000
SAUS45 KPIH 311252
MTRSNT
METAR KSNT 311251Z AUTO 00000KT M20/M23 A3015 RMK AO1 SLP273
T12001233





000
SAUS45 KPIH 311152
MTRSNT
METAR KSNT 311151Z AUTO 00000KT M20/M23 A3016 RMK AO1 SLP266
T12001233 11156 21206 53002





000
SAUS45 KPIH 311052
MTRSNT
METAR KSNT 311051Z AUTO 18004KT M19/M22 A3016 RMK AO1 SLP256
T11941222





000
SAUS45 KPIH 310952
MTRSNT
METAR KSNT 310951Z AUTO 00000KT M17/M21 A3016 RMK AO1 SLP258
T11721206





000
SAUS45 KPIH 310852
MTRSNT
METAR KSNT 310851Z AUTO 16004KT M18/M21 A3016 RMK AO1 SLP266
T11831211 58004





000
SAUS45 KPIH 310752
MTRSNT
METAR KSNT 310751Z AUTO 00000KT M17/M21 A3017 RMK AO1 SLP273
T11721206





000
SAUS45 KPIH 310652
MTRSNT
METAR KSNT 310651Z AUTO 17004KT M17/M20 A3017 RMK AO1 SLP273
T11671200 410281167





000
SAUS45 KPIH 310552
MTRSNT
METAR KSNT 310551Z AUTO 10003KT M16/M18 A3017 RMK AO1 SLP271
T11561178 11044 21161 53004





000
SAUS45 KPIH 310452
MTRSNT
METAR KSNT 310451Z AUTO 00000KT M15/M17 A3016 RMK AO1 SLP272
T11501172





000
SAUS45 KPIH 310352
MTRSNT
METAR KSNT 310351Z AUTO 00000KT M14/M16 A3016 RMK AO1 SLP271
T11391161





000
SAUS45 KPIH 310252
MTRSNT
METAR KSNT 310251Z AUTO 15003KT M12/M14 A3015 RMK AO1 SLP263
T11221144 53002





000
SAUS45 KPIH 310152
MTRSNT
METAR KSNT 310151Z AUTO 17004KT M09/M13 A3015 RMK AO1 SLP252
T10941128





000
SAUS45 KPIH 310052
MTRSNT
METAR KSNT 310051Z AUTO 12003KT M09/M13 A3014 RMK AO1 SLP247
T10941128





000
SAUS45 KPIH 302352
MTRSNT
METAR KSNT 302351Z AUTO 08004KT M04/M11 A3015 RMK AO1 SLP238
T10441106 11028 21106 56014





000
SAUS45 KPIH 302252
MTRSNT
METAR KSNT 302251Z AUTO 07005KT M03/M10 A3015 RMK AO1 SLP236
T10331100





000
SAUS45 KPIH 302152
MTRSNT
METAR KSNT 302151Z AUTO 00000KT M06/M09 A3017 RMK AO1 SLP248
T10561094





000
SAUS45 KPIH 302052
MTRSNT
METAR KSNT 302051Z AUTO 00000KT M07/M11 A3020 RMK AO1 SLP266
T10721111 58022





000
SAUS45 KPIH 301952
MTRSNT
METAR KSNT 301951Z AUTO 09004KT M10/M13 A3025 RMK AO1 SLP292
T11001128





000
SAUS45 KPIH 301852
MTRSNT
METAR KSNT 301851Z AUTO 35003KT M09/M12 A3027 RMK AO1 SLP294
T10941122





000
SAUS45 KPIH 301752
MTRSNT
METAR KSNT 301751Z AUTO 10005KT M11/M13 A3028 RMK AO1 SLP303
T11061133 11106 21128 58001





000
SAUS45 KPIH 301652
MTRSNT
METAR KSNT 301651Z AUTO 10003KT M12/M14 A3029 RMK AO1 SLP307
T11171144





000
SAUS45 KPIH 301552
MTRSNT
METAR KSNT 301551Z AUTO 07004KT M13/M16 A3028 RMK AO1 SLP302
T11281156





000
SAUS45 KPIH 301452
MTRSNT
METAR KSNT 301451Z AUTO 10003KT M12/M16 A3028 RMK AO1 SLP301
T11221156 58005





000
SAUS45 KPIH 301352
MTRSNT
METAR KSNT 301351Z AUTO 00000KT M12/M15 A3029 RMK AO1 SLP291
T11221150





000
SAUS45 KPIH 301252
MTRSNT
METAR KSNT 301251Z AUTO 00000KT M12/M15 A3029 RMK AO1 SLP287
T11221150





000
SAUS45 KPIH 301152
MTRSNT
METAR KSNT 301151Z AUTO 00000KT M12/M15 A3030 RMK AO1 SLP282
T11221150 11117 21144 58002





000
SAUS45 KPIH 301052
MTRSNT
METAR KSNT 301051Z AUTO 00000KT M12/M15 A3030 RMK AO1 SLP280
T11221150





000
SAUS45 KPIH 300952
MTRSNT
METAR KSNT 300951Z AUTO 00000KT M12/M14 A3031 RMK AO1 SLP286
T11221144





000
SAUS45 KPIH 300852
MTRSNT
METAR KSNT 300851Z AUTO 00000KT M13/M16 A3030 RMK AO1 SLP296
T11331156 58002





000
SAUS45 KPIH 300752
MTRSNT
METAR KSNT 300751Z AUTO 00000KT M14/M17 A3031 RMK AO1 SLP305
T11391167





000
SAUS45 KPIH 300652
MTRSNT
METAR KSNT 300651Z AUTO 00000KT M12/M15 A3032 RMK AO1 SLP304
T11221150 410061139





000
SAUS45 KPIH 300552
MTRSNT
METAR KSNT 300551Z AUTO 10003KT M13/M15 A3031 RMK AO1 SLP305
T11281150 11017 21128 56001





000
SAUS45 KPIH 300452
MTRSNT
METAR KSNT 300451Z AUTO 15003KT M12/M13 A3031 RMK AO1 SLP309
T11171133





000
SAUS45 KPIH 300352
MTRSNT
METAR KSNT 300351Z AUTO 16004KT M10/M12 A3031 RMK AO1 SLP306
T11001122





000
SAUS45 KPIH 300252
MTRSNT
METAR KSNT 300251Z AUTO 16003KT M10/M12 A3032 RMK AO1 SLP310
T11001122 53004





000
SAUS45 KPIH 300152
MTRSNT
METAR KSNT 300151Z AUTO 16004KT M06/M09 A3031 RMK AO1 SLP294
T10611094





000
SAUS45 KPIH 300052
MTRSNT
METAR KSNT 300051Z AUTO 00000KT M04/M08 A3030 RMK AO1 SLP287
T10391083





000
SAUS45 KPIH 292352
MTRSNT
METAR KSNT 292351Z AUTO 00000KT M02/M07 A3030 RMK AO1 SLP280
T10171072 11006 21072 56010





000
SAUS45 KPIH 292252
MTRSNT
METAR KSNT 292251Z AUTO 00000KT M01/M08 A3031 RMK AO1 SLP282
T10061078





000
SAUS45 KPIH 292152
MTRSNT
METAR KSNT 292151Z AUTO 00000KT M02/M07 A3032 RMK AO1 SLP285
T10171072





000
SAUS45 KPIH 292152
MTRSNT
METAR KSNT 292151Z AUTO 00000KT M02/M07 A3032 RMK AO1 SLP285
T10171072





000
SAUS45 KPIH 292052
MTRSNT
METAR KSNT 292051Z AUTO 00000KT M04/M08 A3034 RMK AO1 SLP300
T10441078 58025





000
SAUS45 KPIH 291952
MTRSNT
METAR KSNT 291951Z AUTO 00000KT M07/M09 A3038 RMK AO1 SLP317
T10671094





000
SAUS45 KPIH 291852
MTRSNT
METAR KSNT 291851Z AUTO 00000KT M07/M11 A3041 RMK AO1 SLP332
T10721106





000
SAUS45 KPIH 291752
MTRSNT
METAR KSNT 291751Z AUTO 00000KT M07/M09 A3043 RMK AO1 SLP333
T10721094 11072 21117 58002





000
SAUS45 KPIH 291652
MTRSNT
METAR KSNT 291651Z AUTO 09003KT M09/M12 A3044 RMK AO1 SLP335
T10941122





000
SAUS45 KPIH 291552
MTRSNT
METAR KSNT 291551Z AUTO 09003KT M11/M14 A3044 RMK AO1 SLP338
T11061139





000
SAUS45 KPIH 291452
MTRSNT
METAR KSNT 291451Z AUTO 09004KT M12/M14 A3044 RMK AO1 SLP335
T11171144 55000





000
SAUS45 KPIH 291352
MTRSNT
METAR KSNT 291351Z AUTO 09003KT M11/M14 A3043 RMK AO1 SLP330
T11111139





000
SAUS45 KPIH 291252
MTRSNT
METAR KSNT 291251Z AUTO 00000KT M11/M14 A3043 RMK AO1 SLP327
T11111139





000
SAUS45 KPIH 291152
MTRSNT
METAR KSNT 291151Z AUTO 00000KT M11/M14 A3044 RMK AO1 SLP316
T11111139 11067 21117 51006





000
SAUS45 KPIH 291052
MTRSNT
METAR KSNT 291051Z AUTO 00000KT M12/M15 A3044 RMK AO1 SLP316
T11171150





000
SAUS45 KPIH 290952
MTRSNT
METAR KSNT 290951Z AUTO 00000KT M11/M14 A3043 RMK AO1 SLP307
T11061139





000
SAUS45 KPIH 290852
MTRSNT
METAR KSNT 290851Z AUTO 00000KT M11/M13 A3042 RMK AO1 SLP309
T11061128 51007





    US Dept of Commerce
    National Oceanic and Atmospheric Administration
    National Weather Service
    1325 East West Highway
    Silver Spring, MD 20910
    Page Author: NWS Internet Services Team
Disclaimer
Information Quality
Credits
Glossary
Privacy Policy
Freedom of Information Act (FOIA)
About Us
Career Opportunities